Puget — AEQW — position and weather

sailwx.info

Track history (hours):
 
Tides and Currents Weather Stations Pressure Air Temp Water Temp Dewpoint Dewpoint Depression Visibility Wind Speed Wind Dir Waves Ship Positions

Puget

Last reported at 2017-Jul-20 21:53 UTC. Time now 2017-Jul-26 06:28 UTC.
Position N 47°40' W 122°24'.

Length 20 m; draft 0.2 m.

Type: Ship. MMSI: 369970510.

Date/timePositionNaut miles runAvg speedWind from/ knotsBaromVisibWave heightAir tempDewpointWater temp
2017-Jul-20 21:53N 47°40' W 122°24'0 0.5
2017-Jul-20 21:30N 47°40' W 122°24'0 0.0
2017-Jul-20 21:00N 47°40' W 122°24'0 0.1
2017-Jul-20 20:30N 47°40' W 122°24'0 0.0
2017-Jul-20 20:01N 47°40' W 122°24'0 0.0
2017-Jul-20 19:30N 47°40' W 122°24'0 0.0
2017-Jul-20 19:00N 47°40' W 122°24'0 0.2
2017-Jul-20 18:30N 47°40' W 122°24'1 2.9
2017-Jul-20 18:00N 47°41' W 122°26'4 7.9
2017-Jul-20 17:30N 47°37' W 122°24'3 7.0
2017-Jul-20 17:00N 47°34' W 122°21'2 3.3
2017-Jul-20 16:30N 47°36' W 122°22'1 2.1
2017-Jul-20 16:00N 47°37' W 122°21'2 3.3
2017-Jul-20 15:30N 47°37' W 122°23'4 7.1
2017-Jul-20 15:00N 47°40' W 122°27'2 0.1
2017-Jul-19 20:57N 47°40' W 122°24'0 0.3
2017-Jul-19 20:30N 47°40' W 122°24'0 0.0
2017-Jul-19 20:01N 47°40' W 122°24'0 0.2
2017-Jul-19 19:31N 47°40' W 122°24'0 0.1
2017-Jul-19 19:01N 47°40' W 122°24'0 0.6
2017-Jul-19 18:30N 47°40' W 122°24'1 1.4
2017-Jul-19 18:00N 47°41' W 122°25'3 5.4
2017-Jul-19 17:31N 47°43' W 122°25'4 8.1
2017-Jul-19 17:01N 47°47' W 122°24'4 8.0
2017-Jul-19 16:30N 47°51' W 122°23'4 8.6
2017-Jul-19 16:01N 47°55' W 122°20'4 8.0
2017-Jul-19 15:29N 47°58' W 122°16'2 4.3
2017-Jul-19 15:00N 47°60' W 122°13'0 0.0
2017-Jul-18 22:19N 47°60' W 122°13'2 4.5
2017-Jul-18 21:57N 47°59' W 122°16'3 7.4
2017-Jul-18 21:30N 48°00' W 122°20'5 8.4
2017-Jul-18 20:58N 48°04' W 122°25'1 0.5
2017-Jul-18 17:55N 48°05' W 122°26'6 4.6
2017-Jul-18 16:30N 48°02' W 122°18'2 3.4
2017-Jul-18 16:00N 48°00' W 122°17'2 4.8
2017-Jul-18 15:30N 47°59' W 122°13'0 0.8
2017-Jul-18 15:00N 47°59' W 122°14'1 0.0
2017-Jul-17 22:59N 47°60' W 122°13'3 6.9
2017-Jul-17 22:30N 47°58' W 122°17'4 7.8
2017-Jul-17 22:00N 47°55' W 122°21'3 6.6
2017-Jul-17 21:30N 47°54' W 122°26'4 8.2
2017-Jul-17 21:00N 47°57' W 122°31'5 1.6
2017-Jul-17 17:52N 47°59' W 122°37'3 7.6
2017-Jul-17 17:30N 47°57' W 122°35'4 7.4
2017-Jul-17 17:00N 47°55' W 122°31'4 8.6
2017-Jul-17 16:30N 47°50' W 122°29'4 8.0
2017-Jul-17 16:00N 47°47' W 122°28'4 7.9
2017-Jul-17 15:30N 47°43' W 122°28'4 7.5
2017-Jul-17 15:00N 47°40' W 122°24'0 0.4
2017-Jul-17 14:30N 47°40' W 122°24'0 0.0
2017-Jul-17 14:00N 47°40' W 122°24'  
2017-Jul-11 22:20N 47°40' W 122°24'0 0.1
2017-Jul-11 22:00N 47°40' W 122°24'2 3.6
2017-Jul-11 21:30N 47°40' W 122°26'4 7.9
2017-Jul-11 21:00N 47°36' W 122°28'4 8.0
2017-Jul-11 20:30N 47°32' W 122°28'2 4.2
2017-Jul-11 20:00N 47°33' W 122°31'0 0.2
2017-Jul-11 19:30N 47°33' W 122°31'2 4.4
2017-Jul-11 19:00N 47°34' W 122°28'4 7.3
2017-Jul-11 18:30N 47°36' W 122°24'2 3.7
2017-Jul-11 18:00N 47°38' W 122°23'0 0.0
2017-Jul-11 17:30N 47°38' W 122°23'0 0.0
2017-Jul-11 17:00N 47°38' W 122°23'0 0.0
2017-Jul-11 16:30N 47°38' W 122°23'0 0.9
2017-Jul-11 16:00N 47°38' W 122°24'3 6.1
2017-Jul-11 15:30N 47°40' W 122°25'1 2.8
2017-Jul-11 15:00N 47°40' W 122°24'0 0.3
2017-Jul-11 14:30N 47°40' W 122°24'  
Track history (hours):
 
Tides and Currents Weather Stations Pressure Air Temp Water Temp Dewpoint Dewpoint Depression Visibility Wind Speed Wind Dir Waves Ship Positions

Puget

Last reported at 2017-Jul-20 21:53 UTC. Time now 2017-Jul-26 06:28 UTC.
Position N 47°40' W 122°24'.

Length 20 m; draft 0.2 m.

Type: Ship. MMSI: 369970510.

Date/timePositionNaut miles runAvg speedWind from/ knotsBaromVisibWave heightAir tempDewpointWater temp
2017-Jul-20 21:53N 47°40' W 122°24'0 0.5
2017-Jul-20 21:30N 47°40' W 122°24'0 0.0
2017-Jul-20 21:00N 47°40' W 122°24'0 0.1
2017-Jul-20 20:30N 47°40' W 122°24'0 0.0
2017-Jul-20 20:01N 47°40' W 122°24'0 0.0
2017-Jul-20 19:30N 47°40' W 122°24'0 0.0
2017-Jul-20 19:00N 47°40' W 122°24'0 0.2
2017-Jul-20 18:30N 47°40' W 122°24'1 2.9
2017-Jul-20 18:00N 47°41' W 122°26'4 7.9
2017-Jul-20 17:30N 47°37' W 122°24'3 7.0
2017-Jul-20 17:00N 47°34' W 122°21'2 3.3
2017-Jul-20 16:30N 47°36' W 122°22'1 2.1
2017-Jul-20 16:00N 47°37' W 122°21'2 3.3
2017-Jul-20 15:30N 47°37' W 122°23'4 7.1
2017-Jul-20 15:00N 47°40' W 122°27'2 0.1
2017-Jul-19 20:57N 47°40' W 122°24'0 0.3
2017-Jul-19 20:30N 47°40' W 122°24'0 0.0
2017-Jul-19 20:01N 47°40' W 122°24'0 0.2
2017-Jul-19 19:31N 47°40' W 122°24'0 0.1
2017-Jul-19 19:01N 47°40' W 122°24'0 0.6
2017-Jul-19 18:30N 47°40' W 122°24'1 1.4
2017-Jul-19 18:00N 47°41' W 122°25'3 5.4
2017-Jul-19 17:31N 47°43' W 122°25'4 8.1
2017-Jul-19 17:01N 47°47' W 122°24'4 8.0
2017-Jul-19 16:30N 47°51' W 122°23'4 8.6
2017-Jul-19 16:01N 47°55' W 122°20'4 8.0
2017-Jul-19 15:29N 47°58' W 122°16'2 4.3
2017-Jul-19 15:00N 47°60' W 122°13'0 0.0
2017-Jul-18 22:19N 47°60' W 122°13'2 4.5
2017-Jul-18 21:57N 47°59' W 122°16'3 7.4
2017-Jul-18 21:30N 48°00' W 122°20'5 8.4
2017-Jul-18 20:58N 48°04' W 122°25'1 0.5
2017-Jul-18 17:55N 48°05' W 122°26'6 4.6
2017-Jul-18 16:30N 48°02' W 122°18'2 3.4
2017-Jul-18 16:00N 48°00' W 122°17'2 4.8
2017-Jul-18 15:30N 47°59' W 122°13'0 0.8
2017-Jul-18 15:00N 47°59' W 122°14'1 0.0
2017-Jul-17 22:59N 47°60' W 122°13'3 6.9
2017-Jul-17 22:30N 47°58' W 122°17'4 7.8
2017-Jul-17 22:00N 47°55' W 122°21'3 6.6
2017-Jul-17 21:30N 47°54' W 122°26'4 8.2
2017-Jul-17 21:00N 47°57' W 122°31'5 1.6
2017-Jul-17 17:52N 47°59' W 122°37'3 7.6
2017-Jul-17 17:30N 47°57' W 122°35'4 7.4
2017-Jul-17 17:00N 47°55' W 122°31'4 8.6
2017-Jul-17 16:30N 47°50' W 122°29'4 8.0
2017-Jul-17 16:00N 47°47' W 122°28'4 7.9
2017-Jul-17 15:30N 47°43' W 122°28'4 7.5
2017-Jul-17 15:00N 47°40' W 122°24'0 0.4
2017-Jul-17 14:30N 47°40' W 122°24'0 0.0
2017-Jul-17 14:00N 47°40' W 122°24'  
2017-Jul-11 22:20N 47°40' W 122°24'0 0.1
2017-Jul-11 22:00N 47°40' W 122°24'2 3.6
2017-Jul-11 21:30N 47°40' W 122°26'4 7.9
2017-Jul-11 21:00N 47°36' W 122°28'4 8.0
2017-Jul-11 20:30N 47°32' W 122°28'2 4.2
2017-Jul-11 20:00N 47°33' W 122°31'0 0.2
2017-Jul-11 19:30N 47°33' W 122°31'2 4.4
2017-Jul-11 19:00N 47°34' W 122°28'4 7.3
2017-Jul-11 18:30N 47°36' W 122°24'2 3.7
2017-Jul-11 18:00N 47°38' W 122°23'0 0.0
2017-Jul-11 17:30N 47°38' W 122°23'0 0.0
2017-Jul-11 17:00N 47°38' W 122°23'0 0.0
2017-Jul-11 16:30N 47°38' W 122°23'0 0.9
2017-Jul-11 16:00N 47°38' W 122°24'3 6.1
2017-Jul-11 15:30N 47°40' W 122°25'1 2.8
2017-Jul-11 15:00N 47°40' W 122°24'0 0.3
2017-Jul-11 14:30N 47°40' W 122°24'  

Dump ship's entire track history